Terminal Aerodrome Forecast
Issued by NWS

Home | Current Version | Previous Version | Text Only | Print | Product List | Glossary On
Versions: 1 2 3 4 5 6 7 8 9 10 11 12 13
000
FTUS46 KPDT 300128 AAA
TAFPSC
TAF AMD
KPSC 300128Z 3001/3024 24010KT P6SM -SHRA BKN050
     FM300600 25008KT P6SM BKN060
     FM301600 34008KT P6SM SCT060=

USA.gov is the U.S. government's official web portal to all federal, state and local government web resources and services.